sensor_id;sensor_type;location;lat;lon;timestamp;temperature;humidity
18408;DHT22;9330;52.210;21.174;2023-03-12T00:00:14;-0.30;99.90
18408;DHT22;9330;52.210;21.174;2023-03-12T00:02:41;-0.40;99.90
18408;DHT22;9330;52.210;21.174;2023-03-12T00:05:09;-0.20;99.90
18408;DHT22;9330;52.210;21.174;2023-03-12T00:07:36;-0.40;99.90
18408;DHT22;9330;52.210;21.174;2023-03-12T00:10:04;-0.40;99.90
18408;DHT22;9330;52.210;21.174;2023-03-12T00:12:33;-0.40;99.90
18408;DHT22;9330;52.210;21.174;2023-03-12T00:15:00;-0.50;99.90
18408;DHT22;9330;52.210;21.174;2023-03-12T00:17:27;-0.40;99.90
18408;DHT22;9330;52.210;21.174;2023-03-12T00:19:54;-0.40;99.90
18408;DHT22;9330;52.210;21.174;2023-03-12T00:22:21;-0.40;99.90
18408;DHT22;9330;52.210;21.174;2023-03-12T00:24:50;-0.40;99.90
18408;DHT22;9330;52.210;21.174;2023-03-12T00:27:18;-0.50;99.90
18408;DHT22;9330;52.210;21.174;2023-03-12T00:29:46;-0.40;99.90
18408;DHT22;9330;52.210;21.174;2023-03-12T00:32:13;-0.30;99.90
18408;DHT22;9330;52.210;21.174;2023-03-12T00:34:40;-0.50;99.90
18408;DHT22;9330;52.210;21.174;2023-03-12T00:37:07;-0.40;99.90
18408;DHT22;9330;52.210;21.174;2023-03-12T00:39:34;-0.30;99.90
18408;DHT22;9330;52.210;21.174;2023-03-12T00:42:01;-0.40;99.90
18408;DHT22;9330;52.210;21.174;2023-03-12T00:44:28;-0.40;99.90
18408;DHT22;9330;52.210;21.174;2023-03-12T00:46:56;-0.40;99.90
18408;DHT22;9330;52.210;21.174;2023-03-12T00:49:23;-0.40;99.90
18408;DHT22;9330;52.210;21.174;2023-03-12T00:51:50;-0.40;99.90
18408;DHT22;9330;52.210;21.174;2023-03-12T00:54:17;-0.30;99.90
18408;DHT22;9330;52.210;21.174;2023-03-12T00:56:44;-0.40;99.90
18408;DHT22;9330;52.210;21.174;2023-03-12T00:59:11;-0.50;99.90
18408;DHT22;9330;52.210;21.174;2023-03-12T01:01:38;-0.40;99.90
18408;DHT22;9330;52.210;21.174;2023-03-12T01:04:06;-0.30;99.90
18408;DHT22;9330;52.210;21.174;2023-03-12T01:06:33;-0.40;99.90
18408;DHT22;9330;52.210;21.174;2023-03-12T01:09:00;-0.40;99.90
18408;DHT22;9330;52.210;21.174;2023-03-12T01:11:27;-0.40;99.90
18408;DHT22;9330;52.210;21.174;2023-03-12T01:13:55;-0.40;99.90
18408;DHT22;9330;52.210;21.174;2023-03-12T01:16:22;-0.40;99.90
18408;DHT22;9330;52.210;21.174;2023-03-12T01:18:52;-0.40;99.90
18408;DHT22;9330;52.210;21.174;2023-03-12T01:21:21;-0.40;99.90
18408;DHT22;9330;52.210;21.174;2023-03-12T01:23:48;-0.40;99.90
18408;DHT22;9330;52.210;21.174;2023-03-12T01:26:15;-0.30;99.90
18408;DHT22;9330;52.210;21.174;2023-03-12T01:28:41;-0.40;99.90
18408;DHT22;9330;52.210;21.174;2023-03-12T01:31:10;-0.40;99.90
18408;DHT22;9330;52.210;21.174;2023-03-12T01:33:37;-0.40;99.90
18408;DHT22;9330;52.210;21.174;2023-03-12T01:36:11;-0.30;99.90
18408;DHT22;9330;52.210;21.174;2023-03-12T01:38:42;-0.40;99.90
18408;DHT22;9330;52.210;21.174;2023-03-12T01:41:09;-0.20;99.90
18408;DHT22;9330;52.210;21.174;2023-03-12T01:43:37;-0.20;99.90
18408;DHT22;9330;52.210;21.174;2023-03-12T01:46:23;-0.30;99.90
18408;DHT22;9330;52.210;21.174;2023-03-12T01:48:54;-0.10;99.90
18408;DHT22;9330;52.210;21.174;2023-03-12T01:51:24;-0.20;99.90
18408;DHT22;9330;52.210;21.174;2023-03-12T01:53:57;-0.30;99.90
18408;DHT22;9330;52.210;21.174;2023-03-12T01:56:28;-0.20;99.90
18408;DHT22;9330;52.210;21.174;2023-03-12T01:58:59;-0.20;99.90
18408;DHT22;9330;52.210;21.174;2023-03-12T02:01:28;-0.20;99.90
18408;DHT22;9330;52.210;21.174;2023-03-12T02:03:57;-0.20;99.90
18408;DHT22;9330;52.210;21.174;2023-03-12T02:06:29;-0.20;99.90
18408;DHT22;9330;52.210;21.174;2023-03-12T02:09:00;-0.20;99.90
18408;DHT22;9330;52.210;21.174;2023-03-12T02:11:27;-0.20;99.90
18408;DHT22;9330;52.210;21.174;2023-03-12T02:13:54;0.00;99.90
18408;DHT22;9330;52.210;21.174;2023-03-12T02:16:21;-0.10;99.90
18408;DHT22;9330;52.210;21.174;2023-03-12T02:18:49;-0.10;99.90
18408;DHT22;9330;52.210;21.174;2023-03-12T02:21:20;-0.10;99.90
18408;DHT22;9330;52.210;21.174;2023-03-12T02:23:54;-0.20;99.90
18408;DHT22;9330;52.210;21.174;2023-03-12T02:26:23;-0.10;99.90
18408;DHT22;9330;52.210;21.174;2023-03-12T02:28:52;-0.10;99.90
18408;DHT22;9330;52.210;21.174;2023-03-12T02:31:23;-0.10;99.90
18408;DHT22;9330;52.210;21.174;2023-03-12T02:33:51;0.00;99.90
18408;DHT22;9330;52.210;21.174;2023-03-12T02:36:20;0.00;99.90
18408;DHT22;9330;52.210;21.174;2023-03-12T02:38:48;0.10;99.90
18408;DHT22;9330;52.210;21.174;2023-03-12T02:41:19;0.00;99.90
18408;DHT22;9330;52.210;21.174;2023-03-12T02:43:50;0.00;99.90
18408;DHT22;9330;52.210;21.174;2023-03-12T02:46:19;0.10;99.90
18408;DHT22;9330;52.210;21.174;2023-03-12T02:48:46;0.10;99.90
18408;DHT22;9330;52.210;21.174;2023-03-12T02:51:13;0.10;99.90
18408;DHT22;9330;52.210;21.174;2023-03-12T02:53:40;0.10;99.90
18408;DHT22;9330;52.210;21.174;2023-03-12T02:56:07;0.10;99.90
18408;DHT22;9330;52.210;21.174;2023-03-12T02:58:33;0.20;99.90
18408;DHT22;9330;52.210;21.174;2023-03-12T03:01:02;0.20;99.90
18408;DHT22;9330;52.210;21.174;2023-03-12T03:03:29;0.10;99.90
18408;DHT22;9330;52.210;21.174;2023-03-12T03:05:56;0.20;99.90
18408;DHT22;9330;52.210;21.174;2023-03-12T03:08:23;0.10;99.90
18408;DHT22;9330;52.210;21.174;2023-03-12T03:10:50;0.10;99.90
18408;DHT22;9330;52.210;21.174;2023-03-12T03:13:17;0.10;99.90
18408;DHT22;9330;52.210;21.174;2023-03-12T03:15:44;0.20;99.90
18408;DHT22;9330;52.210;21.174;2023-03-12T03:18:12;0.20;99.90
18408;DHT22;9330;52.210;21.174;2023-03-12T03:20:39;0.30;99.90
18408;DHT22;9330;52.210;21.174;2023-03-12T03:23:08;0.20;99.90
18408;DHT22;9330;52.210;21.174;2023-03-12T03:25:34;0.20;99.90
18408;DHT22;9330;52.210;21.174;2023-03-12T03:28:01;0.40;99.90
18408;DHT22;9330;52.210;21.174;2023-03-12T03:30:28;0.30;99.90
18408;DHT22;9330;52.210;21.174;2023-03-12T03:32:55;0.20;99.90
18408;DHT22;9330;52.210;21.174;2023-03-12T03:35:23;0.30;99.90
18408;DHT22;9330;52.210;21.174;2023-03-12T03:37:50;0.30;99.90
18408;DHT22;9330;52.210;21.174;2023-03-12T03:40:17;0.30;99.90
18408;DHT22;9330;52.210;21.174;2023-03-12T03:42:44;0.30;99.90
18408;DHT22;9330;52.210;21.174;2023-03-12T03:45:11;0.40;99.90
18408;DHT22;9330;52.210;21.174;2023-03-12T03:47:37;0.40;99.90
18408;DHT22;9330;52.210;21.174;2023-03-12T03:50:05;0.40;99.90
18408;DHT22;9330;52.210;21.174;2023-03-12T03:52:33;0.40;99.90
18408;DHT22;9330;52.210;21.174;2023-03-12T03:55:00;0.40;99.90
18408;DHT22;9330;52.210;21.174;2023-03-12T03:57:27;0.40;99.90
18408;DHT22;9330;52.210;21.174;2023-03-12T03:59:54;0.40;99.90
18408;DHT22;9330;52.210;21.174;2023-03-12T04:02:23;0.50;99.90
18408;DHT22;9330;52.210;21.174;2023-03-12T04:04:50;0.40;99.90
18408;DHT22;9330;52.210;21.174;2023-03-12T04:07:17;0.50;99.90
18408;DHT22;9330;52.210;21.174;2023-03-12T04:09:47;0.40;99.90
18408;DHT22;9330;52.210;21.174;2023-03-12T04:12:13;0.30;99.90
18408;DHT22;9330;52.210;21.174;2023-03-12T04:14:40;0.30;99.90
18408;DHT22;9330;52.210;21.174;2023-03-12T04:17:08;0.30;99.90
18408;DHT22;9330;52.210;21.174;2023-03-12T04:19:35;0.30;99.90
18408;DHT22;9330;52.210;21.174;2023-03-12T04:22:02;0.40;99.90
18408;DHT22;9330;52.210;21.174;2023-03-12T04:24:28;0.30;99.90
18408;DHT22;9330;52.210;21.174;2023-03-12T04:26:57;0.40;99.90
18408;DHT22;9330;52.210;21.174;2023-03-12T04:29:24;0.40;99.90
18408;DHT22;9330;52.210;21.174;2023-03-12T04:31:52;0.40;99.90
18408;DHT22;9330;52.210;21.174;2023-03-12T04:34:21;0.40;99.90
18408;DHT22;9330;52.210;21.174;2023-03-12T04:36:48;0.40;99.90
18408;DHT22;9330;52.210;21.174;2023-03-12T04:39:16;0.40;99.90
18408;DHT22;9330;52.210;21.174;2023-03-12T04:41:44;0.40;99.90
18408;DHT22;9330;52.210;21.174;2023-03-12T04:44:12;0.50;99.90
18408;DHT22;9330;52.210;21.174;2023-03-12T04:46:40;0.40;99.90
18408;DHT22;9330;52.210;21.174;2023-03-12T04:49:07;0.40;99.90
18408;DHT22;9330;52.210;21.174;2023-03-12T04:51:34;0.40;99.90
18408;DHT22;9330;52.210;21.174;2023-03-12T04:54:01;0.50;99.90
18408;DHT22;9330;52.210;21.174;2023-03-12T04:56:28;0.50;99.90
18408;DHT22;9330;52.210;21.174;2023-03-12T04:58:55;0.50;99.90
18408;DHT22;9330;52.210;21.174;2023-03-12T05:01:25;0.50;99.90
18408;DHT22;9330;52.210;21.174;2023-03-12T05:03:53;0.40;99.90
18408;DHT22;9330;52.210;21.174;2023-03-12T05:06:21;0.70;99.90
18408;DHT22;9330;52.210;21.174;2023-03-12T05:08:48;0.50;99.90
18408;DHT22;9330;52.210;21.174;2023-03-12T05:11:16;0.60;99.90
18408;DHT22;9330;52.210;21.174;2023-03-12T05:13:43;0.60;99.90
18408;DHT22;9330;52.210;21.174;2023-03-12T05:16:10;0.50;99.90
18408;DHT22;9330;52.210;21.174;2023-03-12T05:18:39;0.60;99.90
18408;DHT22;9330;52.210;21.174;2023-03-12T05:21:08;0.60;99.90
18408;DHT22;9330;52.210;21.174;2023-03-12T05:23:35;0.60;99.90
18408;DHT22;9330;52.210;21.174;2023-03-12T05:26:04;0.60;99.90
18408;DHT22;9330;52.210;21.174;2023-03-12T05:28:31;0.60;99.90
18408;DHT22;9330;52.210;21.174;2023-03-12T05:30:59;0.60;99.90
18408;DHT22;9330;52.210;21.174;2023-03-12T05:33:27;0.70;99.90
18408;DHT22;9330;52.210;21.174;2023-03-12T05:35:55;0.60;99.90
18408;DHT22;9330;52.210;21.174;2023-03-12T05:38:22;0.60;99.90
18408;DHT22;9330;52.210;21.174;2023-03-12T05:40:53;0.60;99.90
18408;DHT22;9330;52.210;21.174;2023-03-12T05:43:20;0.80;99.90
18408;DHT22;9330;52.210;21.174;2023-03-12T05:45:47;0.60;99.90
18408;DHT22;9330;52.210;21.174;2023-03-12T05:48:14;0.80;99.90
18408;DHT22;9330;52.210;21.174;2023-03-12T05:50:41;0.70;99.90
18408;DHT22;9330;52.210;21.174;2023-03-12T05:53:10;0.60;99.90
18408;DHT22;9330;52.210;21.174;2023-03-12T05:55:38;0.80;99.90
18408;DHT22;9330;52.210;21.174;2023-03-12T05:58:05;0.70;99.90
18408;DHT22;9330;52.210;21.174;2023-03-12T06:00:33;0.70;99.90
18408;DHT22;9330;52.210;21.174;2023-03-12T06:03:02;0.90;99.90
18408;DHT22;9330;52.210;21.174;2023-03-12T06:05:29;0.70;99.90
18408;DHT22;9330;52.210;21.174;2023-03-12T06:07:56;0.70;99.90
18408;DHT22;9330;52.210;21.174;2023-03-12T06:10:24;0.80;99.90
18408;DHT22;9330;52.210;21.174;2023-03-12T06:12:51;0.80;99.90
18408;DHT22;9330;52.210;21.174;2023-03-12T06:15:18;0.70;99.90
18408;DHT22;9330;52.210;21.174;2023-03-12T06:17:45;0.80;99.90
18408;DHT22;9330;52.210;21.174;2023-03-12T06:20:12;0.80;99.90
18408;DHT22;9330;52.210;21.174;2023-03-12T06:22:39;0.80;99.90
18408;DHT22;9330;52.210;21.174;2023-03-12T06:25:06;0.80;99.90
18408;DHT22;9330;52.210;21.174;2023-03-12T06:27:35;0.80;99.90
18408;DHT22;9330;52.210;21.174;2023-03-12T06:30:02;0.90;99.90
18408;DHT22;9330;52.210;21.174;2023-03-12T06:32:29;0.90;99.90
18408;DHT22;9330;52.210;21.174;2023-03-12T06:34:56;0.80;99.90
18408;DHT22;9330;52.210;21.174;2023-03-12T06:37:25;0.90;99.90
18408;DHT22;9330;52.210;21.174;2023-03-12T06:39:52;0.90;99.90
18408;DHT22;9330;52.210;21.174;2023-03-12T06:42:19;1.10;99.90
18408;DHT22;9330;52.210;21.174;2023-03-12T06:44:48;1.30;99.90
18408;DHT22;9330;52.210;21.174;2023-03-12T06:47:15;1.10;99.90
18408;DHT22;9330;52.210;21.174;2023-03-12T06:49:42;1.30;99.90
18408;DHT22;9330;52.210;21.174;2023-03-12T06:52:09;1.20;99.90
18408;DHT22;9330;52.210;21.174;2023-03-12T06:54:36;1.20;99.90
18408;DHT22;9330;52.210;21.174;2023-03-12T06:57:03;1.20;99.90
18408;DHT22;9330;52.210;21.174;2023-03-12T06:59:30;1.20;99.90
18408;DHT22;9330;52.210;21.174;2023-03-12T07:01:58;1.20;99.90
18408;DHT22;9330;52.210;21.174;2023-03-12T07:04:25;1.30;99.90
18408;DHT22;9330;52.210;21.174;2023-03-12T07:06:52;1.30;99.90
18408;DHT22;9330;52.210;21.174;2023-03-12T07:09:19;1.20;99.90
18408;DHT22;9330;52.210;21.174;2023-03-12T07:11:46;1.20;99.90
18408;DHT22;9330;52.210;21.174;2023-03-12T07:14:13;1.30;99.90
18408;DHT22;9330;52.210;21.174;2023-03-12T07:16:40;1.30;99.90
18408;DHT22;9330;52.210;21.174;2023-03-12T07:19:08;1.30;99.90
18408;DHT22;9330;52.210;21.174;2023-03-12T07:21:35;1.30;99.90
18408;DHT22;9330;52.210;21.174;2023-03-12T07:24:02;1.30;99.90
18408;DHT22;9330;52.210;21.174;2023-03-12T07:26:32;1.40;99.90
18408;DHT22;9330;52.210;21.174;2023-03-12T07:28:59;1.40;99.90
18408;DHT22;9330;52.210;21.174;2023-03-12T07:31:26;1.40;99.90
18408;DHT22;9330;52.210;21.174;2023-03-12T07:33:53;1.60;99.90
18408;DHT22;9330;52.210;21.174;2023-03-12T07:36:21;1.70;99.90
18408;DHT22;9330;52.210;21.174;2023-03-12T07:38:48;1.70;99.90
18408;DHT22;9330;52.210;21.174;2023-03-12T07:41:15;1.80;99.90
18408;DHT22;9330;52.210;21.174;2023-03-12T07:43:42;1.80;99.90
18408;DHT22;9330;52.210;21.174;2023-03-12T07:46:08;1.90;99.90
18408;DHT22;9330;52.210;21.174;2023-03-12T07:48:35;1.90;99.90
18408;DHT22;9330;52.210;21.174;2023-03-12T07:51:03;2.10;99.90
18408;DHT22;9330;52.210;21.174;2023-03-12T07:53:31;2.30;99.90
18408;DHT22;9330;52.210;21.174;2023-03-12T07:55:58;2.50;99.90
18408;DHT22;9330;52.210;21.174;2023-03-12T07:58:25;2.80;99.90
18408;DHT22;9330;52.210;21.174;2023-03-12T08:00:54;2.70;99.90
18408;DHT22;9330;52.210;21.174;2023-03-12T08:03:21;2.70;99.90
18408;DHT22;9330;52.210;21.174;2023-03-12T08:05:55;2.70;99.90
18408;DHT22;9330;52.210;21.174;2023-03-12T08:08:23;2.80;99.90
18408;DHT22;9330;52.210;21.174;2023-03-12T08:10:51;2.80;99.90
18408;DHT22;9330;52.210;21.174;2023-03-12T08:13:18;2.80;99.90
18408;DHT22;9330;52.210;21.174;2023-03-12T08:15:44;2.70;99.90
18408;DHT22;9330;52.210;21.174;2023-03-12T08:18:11;2.60;99.90
18408;DHT22;9330;52.210;21.174;2023-03-12T08:20:38;2.40;99.90
18408;DHT22;9330;52.210;21.174;2023-03-12T08:23:05;2.50;99.90
18408;DHT22;9330;52.210;21.174;2023-03-12T08:25:32;2.30;99.90
18408;DHT22;9330;52.210;21.174;2023-03-12T08:28:01;2.50;99.90
18408;DHT22;9330;52.210;21.174;2023-03-12T08:30:28;2.40;99.90
18408;DHT22;9330;52.210;21.174;2023-03-12T08:32:56;2.30;99.90
18408;DHT22;9330;52.210;21.174;2023-03-12T08:35:23;2.30;99.90
18408;DHT22;9330;52.210;21.174;2023-03-12T08:37:49;2.20;99.90
18408;DHT22;9330;52.210;21.174;2023-03-12T08:40:16;2.20;99.90
18408;DHT22;9330;52.210;21.174;2023-03-12T08:42:43;2.10;99.90
18408;DHT22;9330;52.210;21.174;2023-03-12T08:45:12;2.00;99.90
18408;DHT22;9330;52.210;21.174;2023-03-12T08:47:40;1.90;99.90
18408;DHT22;9330;52.210;21.174;2023-03-12T08:50:09;2.40;99.90
18408;DHT22;9330;52.210;21.174;2023-03-12T08:52:36;2.70;99.90
18408;DHT22;9330;52.210;21.174;2023-03-12T08:55:04;3.20;99.90
18408;DHT22;9330;52.210;21.174;2023-03-12T08:57:31;3.00;99.90
18408;DHT22;9330;52.210;21.174;2023-03-12T08:59:58;3.30;99.90
18408;DHT22;9330;52.210;21.174;2023-03-12T09:02:26;3.50;99.90
18408;DHT22;9330;52.210;21.174;2023-03-12T09:04:53;3.30;99.90
18408;DHT22;9330;52.210;21.174;2023-03-12T09:07:20;3.40;99.90
18408;DHT22;9330;52.210;21.174;2023-03-12T09:09:47;3.10;99.90
18408;DHT22;9330;52.210;21.174;2023-03-12T09:12:14;2.90;99.90
18408;DHT22;9330;52.210;21.174;2023-03-12T09:14:41;2.80;99.90
18408;DHT22;9330;52.210;21.174;2023-03-12T09:17:08;2.60;99.90
18408;DHT22;9330;52.210;21.174;2023-03-12T09:19:36;2.70;99.90
18408;DHT22;9330;52.210;21.174;2023-03-12T09:22:03;2.50;99.90
18408;DHT22;9330;52.210;21.174;2023-03-12T09:24:30;2.50;99.70
18408;DHT22;9330;52.210;21.174;2023-03-12T09:26:57;2.40;99.90
18408;DHT22;9330;52.210;21.174;2023-03-12T09:29:24;2.40;99.90
18408;DHT22;9330;52.210;21.174;2023-03-12T09:31:51;2.40;97.80
18408;DHT22;9330;52.210;21.174;2023-03-12T09:34:17;2.60;98.60
18408;DHT22;9330;52.210;21.174;2023-03-12T09:36:46;2.70;98.90
18408;DHT22;9330;52.210;21.174;2023-03-12T09:39:13;2.60;98.20
18408;DHT22;9330;52.210;21.174;2023-03-12T09:41:40;2.40;99.30
18408;DHT22;9330;52.210;21.174;2023-03-12T09:44:13;2.40;99.90
18408;DHT22;9330;52.210;21.174;2023-03-12T09:46:46;2.50;99.90
18408;DHT22;9330;52.210;21.174;2023-03-12T09:49:20;2.40;99.90
18408;DHT22;9330;52.210;21.174;2023-03-12T09:51:54;2.30;99.70
18408;DHT22;9330;52.210;21.174;2023-03-12T09:54:27;2.30;99.30
18408;DHT22;9330;52.210;21.174;2023-03-12T09:56:57;2.40;99.10
18408;DHT22;9330;52.210;21.174;2023-03-12T09:59:26;2.50;99.20
18408;DHT22;9330;52.210;21.174;2023-03-12T10:01:56;2.40;98.70
18408;DHT22;9330;52.210;21.174;2023-03-12T10:04:37;2.50;98.50
18408;DHT22;9330;52.210;21.174;2023-03-12T10:07:12;2.70;98.30
18408;DHT22;9330;52.210;21.174;2023-03-12T10:10:03;2.60;99.20
18408;DHT22;9330;52.210;21.174;2023-03-12T10:12:40;2.70;98.10
18408;DHT22;9330;52.210;21.174;2023-03-12T10:15:21;2.80;97.20
18408;DHT22;9330;52.210;21.174;2023-03-12T10:17:57;2.80;97.60
18408;DHT22;9330;52.210;21.174;2023-03-12T10:20:52;2.80;97.50
18408;DHT22;9330;52.210;21.174;2023-03-12T10:23:29;2.80;96.30
18408;DHT22;9330;52.210;21.174;2023-03-12T10:26:04;2.90;97.20
18408;DHT22;9330;52.210;21.174;2023-03-12T10:28:35;3.00;97.80
18408;DHT22;9330;52.210;21.174;2023-03-12T10:31:06;2.90;98.20
18408;DHT22;9330;52.210;21.174;2023-03-12T10:33:42;2.80;96.60
18408;DHT22;9330;52.210;21.174;2023-03-12T10:36:14;2.90;96.80
18408;DHT22;9330;52.210;21.174;2023-03-12T10:38:43;2.80;95.40
18408;DHT22;9330;52.210;21.174;2023-03-12T10:41:14;2.80;95.90
18408;DHT22;9330;52.210;21.174;2023-03-12T10:43:41;2.80;95.50
18408;DHT22;9330;52.210;21.174;2023-03-12T10:46:34;2.70;96.00
18408;DHT22;9330;52.210;21.174;2023-03-12T10:49:29;2.80;96.60
18408;DHT22;9330;52.210;21.174;2023-03-12T10:52:00;2.80;97.10
18408;DHT22;9330;52.210;21.174;2023-03-12T10:54:31;2.90;96.00
18408;DHT22;9330;52.210;21.174;2023-03-12T10:56:58;2.90;95.60
18408;DHT22;9330;52.210;21.174;2023-03-12T10:59:28;3.00;96.50
18408;DHT22;9330;52.210;21.174;2023-03-12T11:01:56;3.00;95.20
18408;DHT22;9330;52.210;21.174;2023-03-12T11:04:25;3.00;94.60
18408;DHT22;9330;52.210;21.174;2023-03-12T11:07:18;3.10;95.30
18408;DHT22;9330;52.210;21.174;2023-03-12T11:10:15;3.10;95.20
18408;DHT22;9330;52.210;21.174;2023-03-12T11:12:52;3.10;94.90
18408;DHT22;9330;52.210;21.174;2023-03-12T11:15:22;3.10;96.60
18408;DHT22;9330;52.210;21.174;2023-03-12T11:17:50;3.20;96.30
18408;DHT22;9330;52.210;21.174;2023-03-12T11:20:27;3.10;96.80
18408;DHT22;9330;52.210;21.174;2023-03-12T11:22:55;3.10;96.50
18408;DHT22;9330;52.210;21.174;2023-03-12T11:25:24;3.30;97.10
18408;DHT22;9330;52.210;21.174;2023-03-12T11:27:54;3.10;95.20
18408;DHT22;9330;52.210;21.174;2023-03-12T11:30:25;3.40;92.60
18408;DHT22;9330;52.210;21.174;2023-03-12T11:32:55;3.60;92.20
18408;DHT22;9330;52.210;21.174;2023-03-12T11:35:32;3.80;90.90
18408;DHT22;9330;52.210;21.174;2023-03-12T11:38:07;4.40;90.10
18408;DHT22;9330;52.210;21.174;2023-03-12T11:40:54;4.40;90.50
18408;DHT22;9330;52.210;21.174;2023-03-12T11:43:39;4.60;79.80
18408;DHT22;9330;52.210;21.174;2023-03-12T11:46:19;4.90;73.80
18408;DHT22;9330;52.210;21.174;2023-03-12T11:48:55;5.10;77.30
18408;DHT22;9330;52.210;21.174;2023-03-12T11:51:36;5.10;70.20
18408;DHT22;9330;52.210;21.174;2023-03-12T11:57:13;5.40;67.60
18408;DHT22;9330;52.210;21.174;2023-03-12T11:59:52;5.40;65.50
18408;DHT22;9330;52.210;21.174;2023-03-12T12:02:53;5.40;65.40
18408;DHT22;9330;52.210;21.174;2023-03-12T12:05:26;5.20;64.30
18408;DHT22;9330;52.210;21.174;2023-03-12T12:08:26;4.80;61.40
18408;DHT22;9330;52.210;21.174;2023-03-12T12:11:02;4.70;65.60
18408;DHT22;9330;52.210;21.174;2023-03-12T12:13:38;4.90;67.20
18408;DHT22;9330;52.210;21.174;2023-03-12T12:16:22;5.20;64.60
18408;DHT22;9330;52.210;21.174;2023-03-12T12:19:00;5.40;62.80
18408;DHT22;9330;52.210;21.174;2023-03-12T12:21:41;5.40;57.90
18408;DHT22;9330;52.210;21.174;2023-03-12T12:24:20;5.70;58.50
18408;DHT22;9330;52.210;21.174;2023-03-12T12:26:54;6.10;56.40
18408;DHT22;9330;52.210;21.174;2023-03-12T12:29:34;6.30;55.90
18408;DHT22;9330;52.210;21.174;2023-03-12T12:32:05;6.50;54.70
18408;DHT22;9330;52.210;21.174;2023-03-12T12:34:56;6.80;53.40
18408;DHT22;9330;52.210;21.174;2023-03-12T12:37:40;7.20;52.80
18408;DHT22;9330;52.210;21.174;2023-03-12T12:40:18;6.70;50.70
18408;DHT22;9330;52.210;21.174;2023-03-12T12:42:54;6.40;51.00
18408;DHT22;9330;52.210;21.174;2023-03-12T12:45:24;5.90;51.60
18408;DHT22;9330;52.210;21.174;2023-03-12T12:47:56;5.80;53.60
18408;DHT22;9330;52.210;21.174;2023-03-12T12:50:29;6.40;53.60
18408;DHT22;9330;52.210;21.174;2023-03-12T12:53:05;6.10;52.70
18408;DHT22;9330;52.210;21.174;2023-03-12T12:55:41;5.50;53.10
18408;DHT22;9330;52.210;21.174;2023-03-12T12:58:12;5.20;54.30
18408;DHT22;9330;52.210;21.174;2023-03-12T13:00:48;4.90;54.80
18408;DHT22;9330;52.210;21.174;2023-03-12T13:03:17;4.60;54.10
18408;DHT22;9330;52.210;21.174;2023-03-12T13:05:54;4.60;53.70
18408;DHT22;9330;52.210;21.174;2023-03-12T13:11:29;4.30;54.70
18408;DHT22;9330;52.210;21.174;2023-03-12T13:14:33;4.50;56.00
18408;DHT22;9330;52.210;21.174;2023-03-12T13:20:13;5.00;56.50
18408;DHT22;9330;52.210;21.174;2023-03-12T13:22:53;5.00;54.90
18408;DHT22;9330;52.210;21.174;2023-03-12T13:25:29;5.00;55.00
18408;DHT22;9330;52.210;21.174;2023-03-12T13:27:58;4.90;56.00
18408;DHT22;9330;52.210;21.174;2023-03-12T13:30:49;4.80;55.70
18408;DHT22;9330;52.210;21.174;2023-03-12T13:33:18;4.80;57.80
18408;DHT22;9330;52.210;21.174;2023-03-12T13:36:02;4.90;56.50
18408;DHT22;9330;52.210;21.174;2023-03-12T13:38:34;4.60;56.60
18408;DHT22;9330;52.210;21.174;2023-03-12T13:41:03;4.50;58.00
18408;DHT22;9330;52.210;21.174;2023-03-12T13:49:15;4.70;60.20
18408;DHT22;9330;52.210;21.174;2023-03-12T13:52:07;4.60;59.50
18408;DHT22;9330;52.210;21.174;2023-03-12T13:54:40;4.50;58.10
18408;DHT22;9330;52.210;21.174;2023-03-12T13:57:23;4.50;58.00
18408;DHT22;9330;52.210;21.174;2023-03-12T13:59:51;4.70;59.40
18408;DHT22;9330;52.210;21.174;2023-03-12T14:02:22;4.70;57.90
18408;DHT22;9330;52.210;21.174;2023-03-12T14:04:52;4.70;57.70
18408;DHT22;9330;52.210;21.174;2023-03-12T14:07:41;4.50;57.60
18408;DHT22;9330;52.210;21.174;2023-03-12T14:10:22;4.40;57.40
18408;DHT22;9330;52.210;21.174;2023-03-12T14:12:57;4.30;58.00
18408;DHT22;9330;52.210;21.174;2023-03-12T14:15:30;4.30;57.60
18408;DHT22;9330;52.210;21.174;2023-03-12T14:18:03;4.30;57.80
18408;DHT22;9330;52.210;21.174;2023-03-12T14:20:38;4.30;58.40
18408;DHT22;9330;52.210;21.174;2023-03-12T14:23:08;4.40;58.80
18408;DHT22;9330;52.210;21.174;2023-03-12T14:25:39;4.60;59.40
18408;DHT22;9330;52.210;21.174;2023-03-12T14:28:13;4.60;59.80
18408;DHT22;9330;52.210;21.174;2023-03-12T14:30:48;4.60;60.20
18408;DHT22;9330;52.210;21.174;2023-03-12T14:33:18;4.60;59.70
18408;DHT22;9330;52.210;21.174;2023-03-12T14:35:52;4.40;59.20
18408;DHT22;9330;52.210;21.174;2023-03-12T14:38:24;4.40;59.40
18408;DHT22;9330;52.210;21.174;2023-03-12T14:40:54;4.40;59.10
18408;DHT22;9330;52.210;21.174;2023-03-12T14:43:25;4.50;59.10
18408;DHT22;9330;52.210;21.174;2023-03-12T14:45:56;4.40;59.20
18408;DHT22;9330;52.210;21.174;2023-03-12T14:48:27;4.30;61.20
18408;DHT22;9330;52.210;21.174;2023-03-12T14:50:56;4.30;59.80
18408;DHT22;9330;52.210;21.174;2023-03-12T14:53:25;4.20;62.70
18408;DHT22;9330;52.210;21.174;2023-03-12T14:56:03;4.30;62.40
18408;DHT22;9330;52.210;21.174;2023-03-12T14:58:32;4.10;63.90
18408;DHT22;9330;52.210;21.174;2023-03-12T15:01:00;4.20;64.70
18408;DHT22;9330;52.210;21.174;2023-03-12T15:03:29;4.20;65.00
18408;DHT22;9330;52.210;21.174;2023-03-12T15:05:57;4.30;66.80
18408;DHT22;9330;52.210;21.174;2023-03-12T15:08:25;4.40;65.90
18408;DHT22;9330;52.210;21.174;2023-03-12T15:10:54;4.50;66.00
18408;DHT22;9330;52.210;21.174;2023-03-12T15:13:22;4.30;66.10
18408;DHT22;9330;52.210;21.174;2023-03-12T15:15:52;4.40;66.60
18408;DHT22;9330;52.210;21.174;2023-03-12T15:18:22;4.20;65.10
18408;DHT22;9330;52.210;21.174;2023-03-12T15:20:51;4.10;67.60
18408;DHT22;9330;52.210;21.174;2023-03-12T15:23:21;4.00;68.80
18408;DHT22;9330;52.210;21.174;2023-03-12T15:26:08;4.00;69.70
18408;DHT22;9330;52.210;21.174;2023-03-12T15:28:35;3.90;72.80
18408;DHT22;9330;52.210;21.174;2023-03-12T15:31:10;3.90;75.00
18408;DHT22;9330;52.210;21.174;2023-03-12T15:33:38;3.80;71.80
18408;DHT22;9330;52.210;21.174;2023-03-12T15:36:22;3.90;75.10
18408;DHT22;9330;52.210;21.174;2023-03-12T15:38:53;3.70;75.40
18408;DHT22;9330;52.210;21.174;2023-03-12T15:41:22;3.80;76.10
18408;DHT22;9330;52.210;21.174;2023-03-12T15:43:53;3.80;78.70
18408;DHT22;9330;52.210;21.174;2023-03-12T15:46:22;3.80;73.50
18408;DHT22;9330;52.210;21.174;2023-03-12T15:48:50;3.80;76.00
18408;DHT22;9330;52.210;21.174;2023-03-12T15:51:30;3.80;78.80
18408;DHT22;9330;52.210;21.174;2023-03-12T15:54:04;3.70;77.40
18408;DHT22;9330;52.210;21.174;2023-03-12T15:56:33;3.70;77.90
18408;DHT22;9330;52.210;21.174;2023-03-12T15:59:15;3.70;77.70
18408;DHT22;9330;52.210;21.174;2023-03-12T16:01:44;3.70;79.20
18408;DHT22;9330;52.210;21.174;2023-03-12T16:04:12;3.70;78.60
18408;DHT22;9330;52.210;21.174;2023-03-12T16:06:39;3.80;79.50
18408;DHT22;9330;52.210;21.174;2023-03-12T16:09:14;3.80;82.10
18408;DHT22;9330;52.210;21.174;2023-03-12T16:11:41;3.70;81.50
18408;DHT22;9330;52.210;21.174;2023-03-12T16:14:13;3.80;82.90
18408;DHT22;9330;52.210;21.174;2023-03-12T16:16:40;3.70;84.80